Club Harmony — V7XN2 — position and weather

sailwx.info

Track history (hours):
 
Tides and Currents Weather Stations Pressure Air Temp Water Temp Dewpoint Dewpoint Depression Visibility Wind Speed Wind Dir Waves Ship Positions

Club Harmony

Last reported at 2017-Oct-09 08:36 UTC. Time now 2017-Oct-18 13:01 UTC.
Position N 28°06' W 013°34'.
Warning: this ship's position is 9 days out of date.

Length 176 m; draft 7.9 m.

Type: Passenger vessel. MMSI: 538004519.

Date/timePositionNaut miles runAvg speedWind from/ knotsBaromVisibWave heightAir tempDewpointWater temp
2017-Oct-09 08:36N 28°06' W 013°34'110.7
2017-Oct-09 08:28N 28°07' W 013°33'1610.7
2017-Oct-09 06:56N 28°21' W 013°22'1410.6
2017-Oct-09 05:36N 28°33' W 013°14'211.3
2017-Oct-09 05:26N 28°34' W 013°13'510.9
2017-Oct-09 04:59N 28°38' W 013°10'710.8
2017-Oct-09 04:22N 28°44' W 013°06'610.8
2017-Oct-09 03:49N 28°49' W 013°02'310.5
2017-Oct-09 03:30N 28°52' W 013°00'1710.4
2017-Oct-09 01:53N 29°06' W 012°50'36710.6
2017-Oct-07 15:21N 33°58' W 008°29'1110.3
2017-Oct-07 14:17N 34°05' W 008°19'410.2
2017-Oct-07 13:53N 34°08' W 008°16'410.2
2017-Oct-07 13:30N 34°11' W 008°13'510.2
2017-Oct-07 13:00N 34°15' W 008°09'510.0
2017-Oct-07 12:30N 34°19' W 008°05'5 9.9
2017-Oct-07 11:59N 34°22' W 008°01'510.8
2017-Oct-07 11:30N 34°26' W 007°56'3010.7
2017-Oct-07 08:41N 34°45' W 007°28'210.9
2017-Oct-07 08:30N 34°46' W 007°26'511.0
2017-Oct-07 08:00N 34°50' W 007°21'510.9
2017-Oct-07 07:30N 34°54' W 007°16'611.4
2017-Oct-07 07:00N 34°58' W 007°11'612.0
2017-Oct-07 06:30N 35°02' W 007°06'611.5
2017-Oct-07 06:00N 35°06' W 007°01'611.6
2017-Oct-07 05:30N 35°10' W 006°56'611.2
2017-Oct-07 05:00N 35°13' W 006°51'611.1
2017-Oct-07 04:31N 35°17' W 006°46'611.0
2017-Oct-07 04:00N 35°21' W 006°41'510.6
2017-Oct-07 03:30N 35°25' W 006°37'510.6
2017-Oct-07 03:00N 35°29' W 006°32'510.4
2017-Oct-07 02:30N 35°33' W 006°28'611.6
2017-Oct-07 01:58N 35°37' W 006°22'1611.3
2017-Oct-07 00:34N 35°47' W 006°07'111.3
2017-Oct-07 00:29N 35°48' W 006°06'611.5
2017-Oct-06 23:59N 35°52' W 006°02'511.0
2017-Oct-06 23:30N 35°55' W 005°56'1610.3
2017-Oct-06 21:57N 35°58' W 005°36'3 7.7
2017-Oct-06 21:30N 35°59' W 005°32'4 6.8
2017-Oct-06 20:55N 36°00' W 005°28'2 5.8
2017-Oct-06 20:30N 36°01' W 005°25'3 5.5
2017-Oct-06 20:01N 36°02' W 005°22'3 6.2
2017-Oct-06 19:30N 36°03' W 005°18'5 9.1
2017-Oct-06 19:00N 36°03' W 005°13'5 9.9
2017-Oct-06 18:30N 36°04' W 005°06'1010.2
2017-Oct-06 17:33N 36°06' W 004°55'110.0
2017-Oct-06 17:26N 36°06' W 004°53'4 9.7
2017-Oct-06 17:00N 36°07' W 004°48'191 9.7
2017-Oct-05 21:15N 37°00' W 000°59'311.0
2017-Oct-05 21:00N 37°01' W 000°56'511.0
2017-Oct-05 20:30N 37°04' W 000°50'510.9
2017-Oct-05 20:00N 37°07' W 000°44'510.8
2017-Oct-05 19:30N 37°10' W 000°38'610.3
2017-Oct-05 18:55N 37°14' W 000°33'410.4
2017-Oct-05 18:31N 37°17' W 000°30'510.5
2017-Oct-05 18:00N 37°21' W 000°26'510.4
2017-Oct-05 17:31N 37°26' W 000°22'510.6
2017-Oct-05 17:00N 37°30' W 000°18'1610.7
2017-Oct-05 15:30N 37°43' W 000°06'30810.0
2017-Oct-04 08:49N 41°53' E 003°49'311.0
2017-Oct-04 08:30N 41°56' E 003°51'910.5
2017-Oct-04 07:38N 42°04' E 003°57'110.5
2017-Oct-04 07:30N 42°05' E 003°59'810.6
2017-Oct-04 06:46N 42°11' E 004°05'1610.6
2017-Oct-04 05:15N 42°25' E 004°16'1010.9
2017-Oct-04 04:20N 42°33' E 004°25'411.1
2017-Oct-04 04:00N 42°36' E 004°28'1611.3
2017-Oct-04 02:36N 42°49' E 004°39'211.6
2017-Oct-04 02:28N 42°50' E 004°41'511.7
2017-Oct-04 02:01N 42°54' E 004°44'611.4
2017-Oct-04 01:31N 42°59' E 004°49'611.0
2017-Oct-04 01:00N 43°04' E 004°53'510.8
2017-Oct-04 00:31N 43°08' E 004°57'510.4
2017-Oct-04 00:01N 43°13' E 005°01'510.9
2017-Oct-03 23:30N 43°18' E 004°59'5 9.5
2017-Oct-03 23:01N 43°23' E 004°58'4 7.2
2017-Oct-03 22:31N 43°24' E 004°53'0 0.3
2017-Oct-03 21:59N 43°24' E 004°53'0 0.0
2017-Oct-03 21:29N 43°24' E 004°53'0 0.0
2017-Oct-03 20:56N 43°24' E 004°53'0 0.0
2017-Oct-03 20:26N 43°24' E 004°53'0 0.0
2017-Oct-03 19:59N 43°24' E 004°53'0 0.0
2017-Oct-03 19:26N 43°24' E 004°53'0 0.0
2017-Oct-03 18:59N 43°24' E 004°53'0 0.0
2017-Oct-03 18:29N 43°24' E 004°53'0 0.0
2017-Oct-03 17:56N 43°24' E 004°53'0 0.0
2017-Oct-03 17:29N 43°24' E 004°53'0 0.0
2017-Oct-03 16:59N 43°24' E 004°53'0 0.0
2017-Oct-03 16:29N 43°24' E 004°53'0 0.0
2017-Oct-03 15:59N 43°24' E 004°53'0 0.0
2017-Oct-03 15:29N 43°24' E 004°53'0 0.0
2017-Oct-03 14:59N 43°24' E 004°53'0 0.0
2017-Oct-03 13:59N 43°24' E 004°53'0 0.0
2017-Oct-03 13:29N 43°24' E 004°53'0 0.0
2017-Oct-03 12:59N 43°24' E 004°53'0 0.0
2017-Oct-03 12:29N 43°24' E 004°53'0 0.0
2017-Oct-03 11:59N 43°24' E 004°53'0 0.0
2017-Oct-03 06:11N 43°24' E 004°53'0 0.0
2017-Oct-03 05:53N 43°24' E 004°53'0 0.0
2017-Oct-03 05:29N 43°24' E 004°53'0 0.0
2017-Oct-03 04:59N 43°24' E 004°53'0 0.0
2017-Oct-03 04:26N 43°24' E 004°53'0 0.0
2017-Oct-03 03:53N 43°24' E 004°53'0 0.0
2017-Oct-03 03:26N 43°24' E 004°53'0 0.0
2017-Oct-03 02:59N 43°24' E 004°53'0 0.0
2017-Oct-03 02:29N 43°24' E 004°53'0 0.0
2017-Oct-03 01:53N 43°24' E 004°53'0 0.0
2017-Oct-03 01:29N 43°24' E 004°53'0 0.0
2017-Oct-03 00:59N 43°24' E 004°53'0 0.0
2017-Oct-03 00:29N 43°24' E 004°53'0 0.0
2017-Oct-02 23:56N 43°24' E 004°53'0 0.0
2017-Oct-02 23:29N 43°24' E 004°53'0 0.0
2017-Oct-02 22:59N 43°24' E 004°53'0 0.0
2017-Oct-02 22:20N 43°24' E 004°53'0 0.0
2017-Oct-02 21:56N 43°24' E 004°53'0 0.0
2017-Oct-02 21:29N 43°24' E 004°53'0 0.0
2017-Oct-02 20:59N 43°24' E 004°53'0 0.0
2017-Oct-02 20:29N 43°24' E 004°53'0 0.0
2017-Oct-02 19:59N 43°24' E 004°53'0 0.0
2017-Oct-02 19:26N 43°24' E 004°53'0 0.0
2017-Oct-02 18:53N 43°24' E 004°53'0 0.0
2017-Oct-02 18:26N 43°24' E 004°53'0 0.0
2017-Oct-02 17:59N 43°24' E 004°53'0 0.0
2017-Oct-02 17:29N 43°24' E 004°53'0 0.0
2017-Oct-02 16:59N 43°24' E 004°53'0 0.0
2017-Oct-02 16:29N 43°24' E 004°53'0 0.0
2017-Oct-02 15:59N 43°24' E 004°53'0 0.0
2017-Oct-02 15:23N 43°24' E 004°53'0 0.0
2017-Oct-02 14:59N 43°24' E 004°53'0 0.0
2017-Oct-02 14:30N 43°24' E 004°53'1 1.7
2017-Oct-02 14:01N 43°24' E 004°54'3 6.3
2017-Oct-02 13:30N 43°22' E 004°58'1 1.3
2017-Oct-02 13:00N 43°22' E 004°59'0 0.0
2017-Oct-02 12:30N 43°22' E 004°59'0 0.1
2017-Oct-02 12:00N 43°22' E 004°59'0 0.0
2017-Oct-02 11:30N 43°22' E 004°59'0 0.0
2017-Oct-02 10:57N 43°22' E 004°59'0 0.0
2017-Oct-02 10:30N 43°22' E 004°59'0 0.0
2017-Oct-02 10:00N 43°22' E 004°59'0 0.0
2017-Oct-02 09:30N 43°22' E 004°59'0 0.0
2017-Oct-02 09:00N 43°22' E 004°59'0 0.0
2017-Oct-02 08:30N 43°22' E 004°59'0 0.0
2017-Oct-02 08:00N 43°22' E 004°59'0 0.0
2017-Oct-02 07:30N 43°22' E 004°59'0 0.0
2017-Oct-02 07:00N 43°22' E 004°59'0 0.0
2017-Oct-02 06:30N 43°22' E 004°59'0 0.0
2017-Oct-02 06:00N 43°22' E 004°59'0 0.0
2017-Oct-02 05:30N 43°22' E 004°59'0 0.0
2017-Oct-02 05:00N 43°22' E 004°59'0 0.0
2017-Oct-02 04:30N 43°22' E 004°59'0 0.0
2017-Oct-02 04:00N 43°22' E 004°59'0 0.0
2017-Oct-02 03:30N 43°22' E 004°59'0 0.0
2017-Oct-02 03:00N 43°22' E 004°59'0 0.1
2017-Oct-02 02:30N 43°22' E 004°59'0 0.1
2017-Oct-02 02:00N 43°22' E 004°59'0 0.0
2017-Oct-02 01:30N 43°22' E 004°59'0 0.0
2017-Oct-02 01:00N 43°22' E 004°59'0 0.0
2017-Oct-02 00:30N 43°22' E 004°59'0 0.0
2017-Oct-02 00:00N 43°22' E 004°59'0 0.0
2017-Oct-01 23:30N 43°22' E 004°59'0 0.0
2017-Oct-01 23:00N 43°22' E 004°59'0 0.1
2017-Oct-01 22:30N 43°22' E 004°59'0 0.1
2017-Oct-01 22:00N 43°22' E 004°59'2 4.0
2017-Oct-01 21:31N 43°20' E 004°59'4 8.9
2017-Oct-01 21:00N 43°16' E 005°01'510.9
2017-Oct-01 20:30N 43°10' E 005°02'612.7
2017-Oct-01 20:00N 43°05' E 004°57'612.5
2017-Oct-01 19:30N 43°00' E 004°52'612.2
2017-Oct-01 19:00N 42°55' E 004°47'612.0
2017-Oct-01 18:30N 42°50' E 004°43'612.2
2017-Oct-01 18:00N 42°45' E 004°39'612.2
2017-Oct-01 17:30N 42°39' E 004°35'711.9
2017-Oct-01 16:55N 42°34' E 004°29'512.0
2017-Oct-01 16:30N 42°30' E 004°25'1112.1
2017-Oct-01 15:38N 42°21' E 004°18'212.4
2017-Oct-01 15:29N 42°19' E 004°16'812.4
2017-Oct-01 14:50N 42°12' E 004°10'412.4
2017-Oct-01 14:30N 42°09' E 004°07'  
Track history (hours):
 
Tides and Currents Weather Stations Pressure Air Temp Water Temp Dewpoint Dewpoint Depression Visibility Wind Speed Wind Dir Waves Ship Positions

Club Harmony

Last reported at 2017-Oct-09 08:36 UTC. Time now 2017-Oct-18 13:01 UTC.
Position N 28°06' W 013°34'.
Warning: this ship's position is 9 days out of date.

Length 176 m; draft 7.9 m.

Type: Passenger vessel. MMSI: 538004519.

Date/timePositionNaut miles runAvg speedWind from/ knotsBaromVisibWave heightAir tempDewpointWater temp
2017-Oct-09 08:36N 28°06' W 013°34'110.7
2017-Oct-09 08:28N 28°07' W 013°33'1610.7
2017-Oct-09 06:56N 28°21' W 013°22'1410.6
2017-Oct-09 05:36N 28°33' W 013°14'211.3
2017-Oct-09 05:26N 28°34' W 013°13'510.9
2017-Oct-09 04:59N 28°38' W 013°10'710.8
2017-Oct-09 04:22N 28°44' W 013°06'610.8
2017-Oct-09 03:49N 28°49' W 013°02'310.5
2017-Oct-09 03:30N 28°52' W 013°00'1710.4
2017-Oct-09 01:53N 29°06' W 012°50'36710.6
2017-Oct-07 15:21N 33°58' W 008°29'1110.3
2017-Oct-07 14:17N 34°05' W 008°19'410.2
2017-Oct-07 13:53N 34°08' W 008°16'410.2
2017-Oct-07 13:30N 34°11' W 008°13'510.2
2017-Oct-07 13:00N 34°15' W 008°09'510.0
2017-Oct-07 12:30N 34°19' W 008°05'5 9.9
2017-Oct-07 11:59N 34°22' W 008°01'510.8
2017-Oct-07 11:30N 34°26' W 007°56'3010.7
2017-Oct-07 08:41N 34°45' W 007°28'210.9
2017-Oct-07 08:30N 34°46' W 007°26'511.0
2017-Oct-07 08:00N 34°50' W 007°21'510.9
2017-Oct-07 07:30N 34°54' W 007°16'611.4
2017-Oct-07 07:00N 34°58' W 007°11'612.0
2017-Oct-07 06:30N 35°02' W 007°06'611.5
2017-Oct-07 06:00N 35°06' W 007°01'611.6
2017-Oct-07 05:30N 35°10' W 006°56'611.2
2017-Oct-07 05:00N 35°13' W 006°51'611.1
2017-Oct-07 04:31N 35°17' W 006°46'611.0
2017-Oct-07 04:00N 35°21' W 006°41'510.6
2017-Oct-07 03:30N 35°25' W 006°37'510.6
2017-Oct-07 03:00N 35°29' W 006°32'510.4
2017-Oct-07 02:30N 35°33' W 006°28'611.6
2017-Oct-07 01:58N 35°37' W 006°22'1611.3
2017-Oct-07 00:34N 35°47' W 006°07'111.3
2017-Oct-07 00:29N 35°48' W 006°06'611.5
2017-Oct-06 23:59N 35°52' W 006°02'511.0
2017-Oct-06 23:30N 35°55' W 005°56'1610.3
2017-Oct-06 21:57N 35°58' W 005°36'3 7.7
2017-Oct-06 21:30N 35°59' W 005°32'4 6.8
2017-Oct-06 20:55N 36°00' W 005°28'2 5.8
2017-Oct-06 20:30N 36°01' W 005°25'3 5.5
2017-Oct-06 20:01N 36°02' W 005°22'3 6.2
2017-Oct-06 19:30N 36°03' W 005°18'5 9.1
2017-Oct-06 19:00N 36°03' W 005°13'5 9.9
2017-Oct-06 18:30N 36°04' W 005°06'1010.2
2017-Oct-06 17:33N 36°06' W 004°55'110.0
2017-Oct-06 17:26N 36°06' W 004°53'4 9.7
2017-Oct-06 17:00N 36°07' W 004°48'191 9.7
2017-Oct-05 21:15N 37°00' W 000°59'311.0
2017-Oct-05 21:00N 37°01' W 000°56'511.0
2017-Oct-05 20:30N 37°04' W 000°50'510.9
2017-Oct-05 20:00N 37°07' W 000°44'510.8
2017-Oct-05 19:30N 37°10' W 000°38'610.3
2017-Oct-05 18:55N 37°14' W 000°33'410.4
2017-Oct-05 18:31N 37°17' W 000°30'510.5
2017-Oct-05 18:00N 37°21' W 000°26'510.4
2017-Oct-05 17:31N 37°26' W 000°22'510.6
2017-Oct-05 17:00N 37°30' W 000°18'1610.7
2017-Oct-05 15:30N 37°43' W 000°06'30810.0
2017-Oct-04 08:49N 41°53' E 003°49'311.0
2017-Oct-04 08:30N 41°56' E 003°51'910.5
2017-Oct-04 07:38N 42°04' E 003°57'110.5
2017-Oct-04 07:30N 42°05' E 003°59'810.6
2017-Oct-04 06:46N 42°11' E 004°05'1610.6
2017-Oct-04 05:15N 42°25' E 004°16'1010.9
2017-Oct-04 04:20N 42°33' E 004°25'411.1
2017-Oct-04 04:00N 42°36' E 004°28'1611.3
2017-Oct-04 02:36N 42°49' E 004°39'211.6
2017-Oct-04 02:28N 42°50' E 004°41'511.7
2017-Oct-04 02:01N 42°54' E 004°44'611.4
2017-Oct-04 01:31N 42°59' E 004°49'611.0
2017-Oct-04 01:00N 43°04' E 004°53'510.8
2017-Oct-04 00:31N 43°08' E 004°57'510.4
2017-Oct-04 00:01N 43°13' E 005°01'510.9
2017-Oct-03 23:30N 43°18' E 004°59'5 9.5
2017-Oct-03 23:01N 43°23' E 004°58'4 7.2
2017-Oct-03 22:31N 43°24' E 004°53'0 0.3
2017-Oct-03 21:59N 43°24' E 004°53'0 0.0
2017-Oct-03 21:29N 43°24' E 004°53'0 0.0
2017-Oct-03 20:56N 43°24' E 004°53'0 0.0
2017-Oct-03 20:26N 43°24' E 004°53'0 0.0
2017-Oct-03 19:59N 43°24' E 004°53'0 0.0
2017-Oct-03 19:26N 43°24' E 004°53'0 0.0
2017-Oct-03 18:59N 43°24' E 004°53'0 0.0
2017-Oct-03 18:29N 43°24' E 004°53'0 0.0
2017-Oct-03 17:56N 43°24' E 004°53'0 0.0
2017-Oct-03 17:29N 43°24' E 004°53'0 0.0
2017-Oct-03 16:59N 43°24' E 004°53'0 0.0
2017-Oct-03 16:29N 43°24' E 004°53'0 0.0
2017-Oct-03 15:59N 43°24' E 004°53'0 0.0
2017-Oct-03 15:29N 43°24' E 004°53'0 0.0
2017-Oct-03 14:59N 43°24' E 004°53'0 0.0
2017-Oct-03 13:59N 43°24' E 004°53'0 0.0
2017-Oct-03 13:29N 43°24' E 004°53'0 0.0
2017-Oct-03 12:59N 43°24' E 004°53'0 0.0
2017-Oct-03 12:29N 43°24' E 004°53'0 0.0
2017-Oct-03 11:59N 43°24' E 004°53'0 0.0
2017-Oct-03 06:11N 43°24' E 004°53'0 0.0
2017-Oct-03 05:53N 43°24' E 004°53'0 0.0
2017-Oct-03 05:29N 43°24' E 004°53'0 0.0
2017-Oct-03 04:59N 43°24' E 004°53'0 0.0
2017-Oct-03 04:26N 43°24' E 004°53'0 0.0
2017-Oct-03 03:53N 43°24' E 004°53'0 0.0
2017-Oct-03 03:26N 43°24' E 004°53'0 0.0
2017-Oct-03 02:59N 43°24' E 004°53'0 0.0
2017-Oct-03 02:29N 43°24' E 004°53'0 0.0
2017-Oct-03 01:53N 43°24' E 004°53'0 0.0
2017-Oct-03 01:29N 43°24' E 004°53'0 0.0
2017-Oct-03 00:59N 43°24' E 004°53'0 0.0
2017-Oct-03 00:29N 43°24' E 004°53'0 0.0
2017-Oct-02 23:56N 43°24' E 004°53'0 0.0
2017-Oct-02 23:29N 43°24' E 004°53'0 0.0
2017-Oct-02 22:59N 43°24' E 004°53'0 0.0
2017-Oct-02 22:20N 43°24' E 004°53'0 0.0
2017-Oct-02 21:56N 43°24' E 004°53'0 0.0
2017-Oct-02 21:29N 43°24' E 004°53'0 0.0
2017-Oct-02 20:59N 43°24' E 004°53'0 0.0
2017-Oct-02 20:29N 43°24' E 004°53'0 0.0
2017-Oct-02 19:59N 43°24' E 004°53'0 0.0
2017-Oct-02 19:26N 43°24' E 004°53'0 0.0
2017-Oct-02 18:53N 43°24' E 004°53'0 0.0
2017-Oct-02 18:26N 43°24' E 004°53'0 0.0
2017-Oct-02 17:59N 43°24' E 004°53'0 0.0
2017-Oct-02 17:29N 43°24' E 004°53'0 0.0
2017-Oct-02 16:59N 43°24' E 004°53'0 0.0
2017-Oct-02 16:29N 43°24' E 004°53'0 0.0
2017-Oct-02 15:59N 43°24' E 004°53'0 0.0
2017-Oct-02 15:23N 43°24' E 004°53'0 0.0
2017-Oct-02 14:59N 43°24' E 004°53'0 0.0
2017-Oct-02 14:30N 43°24' E 004°53'1 1.7
2017-Oct-02 14:01N 43°24' E 004°54'3 6.3
2017-Oct-02 13:30N 43°22' E 004°58'1 1.3
2017-Oct-02 13:00N 43°22' E 004°59'0 0.0
2017-Oct-02 12:30N 43°22' E 004°59'0 0.1
2017-Oct-02 12:00N 43°22' E 004°59'0 0.0
2017-Oct-02 11:30N 43°22' E 004°59'0 0.0
2017-Oct-02 10:57N 43°22' E 004°59'0 0.0
2017-Oct-02 10:30N 43°22' E 004°59'0 0.0
2017-Oct-02 10:00N 43°22' E 004°59'0 0.0
2017-Oct-02 09:30N 43°22' E 004°59'0 0.0
2017-Oct-02 09:00N 43°22' E 004°59'0 0.0
2017-Oct-02 08:30N 43°22' E 004°59'0 0.0
2017-Oct-02 08:00N 43°22' E 004°59'0 0.0
2017-Oct-02 07:30N 43°22' E 004°59'0 0.0
2017-Oct-02 07:00N 43°22' E 004°59'0 0.0
2017-Oct-02 06:30N 43°22' E 004°59'0 0.0
2017-Oct-02 06:00N 43°22' E 004°59'0 0.0
2017-Oct-02 05:30N 43°22' E 004°59'0 0.0
2017-Oct-02 05:00N 43°22' E 004°59'0 0.0
2017-Oct-02 04:30N 43°22' E 004°59'0 0.0
2017-Oct-02 04:00N 43°22' E 004°59'0 0.0
2017-Oct-02 03:30N 43°22' E 004°59'0 0.0
2017-Oct-02 03:00N 43°22' E 004°59'0 0.1
2017-Oct-02 02:30N 43°22' E 004°59'0 0.1
2017-Oct-02 02:00N 43°22' E 004°59'0 0.0
2017-Oct-02 01:30N 43°22' E 004°59'0 0.0
2017-Oct-02 01:00N 43°22' E 004°59'0 0.0
2017-Oct-02 00:30N 43°22' E 004°59'0 0.0
2017-Oct-02 00:00N 43°22' E 004°59'0 0.0
2017-Oct-01 23:30N 43°22' E 004°59'0 0.0
2017-Oct-01 23:00N 43°22' E 004°59'0 0.1
2017-Oct-01 22:30N 43°22' E 004°59'0 0.1
2017-Oct-01 22:00N 43°22' E 004°59'2 4.0
2017-Oct-01 21:31N 43°20' E 004°59'4 8.9
2017-Oct-01 21:00N 43°16' E 005°01'510.9
2017-Oct-01 20:30N 43°10' E 005°02'612.7
2017-Oct-01 20:00N 43°05' E 004°57'612.5
2017-Oct-01 19:30N 43°00' E 004°52'612.2
2017-Oct-01 19:00N 42°55' E 004°47'612.0
2017-Oct-01 18:30N 42°50' E 004°43'612.2
2017-Oct-01 18:00N 42°45' E 004°39'612.2
2017-Oct-01 17:30N 42°39' E 004°35'711.9
2017-Oct-01 16:55N 42°34' E 004°29'512.0
2017-Oct-01 16:30N 42°30' E 004°25'1112.1
2017-Oct-01 15:38N 42°21' E 004°18'212.4
2017-Oct-01 15:29N 42°19' E 004°16'812.4
2017-Oct-01 14:50N 42°12' E 004°10'412.4
2017-Oct-01 14:30N 42°09' E 004°07'  

Dump ship's entire track history